createdAt,value
2022-10-03T00:00:12.054Z,1.83
2022-10-03T00:02:58.159Z,1.75
2022-10-03T00:05:38.861Z,1.50
2022-10-03T00:08:29.602Z,1.45
2022-10-03T00:11:15.575Z,1.67
2022-10-03T00:13:45.731Z,1.60
2022-10-03T00:16:19.308Z,1.70
2022-10-03T00:18:50.889Z,1.70
2022-10-03T00:21:18.159Z,2.00
2022-10-03T00:23:50.819Z,1.80
2022-10-03T00:26:27.775Z,1.60
2022-10-03T00:28:55.009Z,2.00
2022-10-03T00:31:43.760Z,1.67
2022-10-03T00:34:14.047Z,1.85
2022-10-03T00:36:49.924Z,2.00
2022-10-03T00:39:29.267Z,1.52
2022-10-03T00:41:56.757Z,1.45
2022-10-03T00:44:23.935Z,1.80
2022-10-03T00:47:00.862Z,1.73
2022-10-03T00:49:37.554Z,2.03
2022-10-03T00:52:11.289Z,1.63
2022-10-03T00:55:00.799Z,1.55
2022-10-03T00:57:51.144Z,1.25
2022-10-03T01:00:24.928Z,1.73
2022-10-03T01:02:52.455Z,1.70
2022-10-03T01:05:38.377Z,1.80
2022-10-03T01:08:08.725Z,1.73
2022-10-03T01:10:57.215Z,2.00
2022-10-03T01:13:43.368Z,1.65
2022-10-03T01:16:14.962Z,3.05
2022-10-03T01:18:52.931Z,2.30
2022-10-03T01:21:29.497Z,1.55
2022-10-03T01:24:11.744Z,1.67
2022-10-03T01:26:39.061Z,2.60
2022-10-03T01:29:28.367Z,2.33
2022-10-03T01:31:58.895Z,2.40
2022-10-03T01:34:28.959Z,2.30
2022-10-03T01:37:22.996Z,2.22
2022-10-03T01:39:50.611Z,2.70
2022-10-03T01:42:21.548Z,2.72
2022-10-03T01:45:18.075Z,2.67
2022-10-03T01:47:56.071Z,2.30
2022-10-03T01:50:35.083Z,2.70
2022-10-03T01:53:17.799Z,2.45
2022-10-03T01:56:12.334Z,2.20
2022-10-03T01:58:54.957Z,2.78
2022-10-03T02:01:31.790Z,2.97
2022-10-03T02:04:13.577Z,3.00
2022-10-03T02:06:50.053Z,3.15
2022-10-03T02:09:20.055Z,3.13
2022-10-03T02:11:50.756Z,3.38
2022-10-03T02:14:28.390Z,3.53
2022-10-03T02:17:14.544Z,3.03
2022-10-03T02:19:57.227Z,3.50
2022-10-03T02:22:30.575Z,2.95
2022-10-03T02:25:08.528Z,3.05
2022-10-03T02:27:54.467Z,3.20
2022-10-03T02:30:40.350Z,3.28
2022-10-03T02:33:07.792Z,3.65
2022-10-03T02:35:38.047Z,3.42
2022-10-03T02:38:19.532Z,3.58
2022-10-03T02:41:05.486Z,3.58
2022-10-03T02:43:33.254Z,3.75
2022-10-03T02:46:11.523Z,3.35
2022-10-03T02:48:45.164Z,4.18
2022-10-03T02:51:31.187Z,3.85
2022-10-03T02:54:10.849Z,3.67
2022-10-03T02:57:03.470Z,4.25
2022-10-03T02:59:48.214Z,3.72
2022-10-03T03:02:27.491Z,3.70
2022-10-03T03:04:56.838Z,3.47
2022-10-03T03:07:24.096Z,4.10
2022-10-03T03:10:14.869Z,3.67
2022-10-03T03:12:54.027Z,4.40
2022-10-03T03:15:30.119Z,3.53
2022-10-03T03:17:57.450Z,3.83
2022-10-03T03:20:43.359Z,3.63
2022-10-03T03:23:29.320Z,3.42
2022-10-03T03:26:06.139Z,4.20
2022-10-03T03:28:39.641Z,3.95
2022-10-03T03:31:07.249Z,4.40
2022-10-03T03:33:53.396Z,4.30
2022-10-03T03:36:37.851Z,4.55
2022-10-03T03:39:24.253Z,4.60
2022-10-03T03:42:23.894Z,4.18
2022-10-03T03:45:09.696Z,4.80
2022-10-03T03:47:37.755Z,4.55
2022-10-03T03:50:18.778Z,5.00
2022-10-03T03:52:58.428Z,4.85
2022-10-03T03:55:28.250Z,5.45
2022-10-03T03:58:11.048Z,4.88
2022-10-03T04:00:41.930Z,4.97
2022-10-03T04:03:25.876Z,4.45
2022-10-03T04:06:03.746Z,4.75
2022-10-03T04:09:01.396Z,4.40
2022-10-03T04:11:28.924Z,4.78
2022-10-03T04:13:56.457Z,5.15
2022-10-03T04:17:11.578Z,5.35
2022-10-03T04:19:57.232Z,4.63
2022-10-03T04:22:43.488Z,4.90
2022-10-03T04:25:29.208Z,5.22
2022-10-03T04:28:02.714Z,5.28
2022-10-03T04:30:33.078Z,4.95
2022-10-03T04:33:07.049Z,4.50
2022-10-03T04:35:52.780Z,5.20
2022-10-03T04:38:39.583Z,5.05
2022-10-03T04:41:27.697Z,5.50
2022-10-03T04:44:00.879Z,5.97
2022-10-03T04:46:28.209Z,5.30
2022-10-03T04:49:12.181Z,5.50
2022-10-03T04:51:46.988Z,5.28
2022-10-03T04:57:01.009Z,5.35
2022-10-03T04:59:43.148Z,5.22
2022-10-03T05:02:12.764Z,4.55
2022-10-03T05:04:45.404Z,6.20
2022-10-03T05:07:12.721Z,5.10
2022-10-03T05:09:42.942Z,5.32
2022-10-03T05:12:10.416Z,5.70
2022-10-03T05:14:56.238Z,4.93
2022-10-03T05:17:29.157Z,5.30
2022-10-03T05:19:56.398Z,5.57
2022-10-03T05:22:42.334Z,4.95
2022-10-03T05:25:19.410Z,5.68
2022-10-03T05:28:01.691Z,6.25
2022-10-03T05:30:34.898Z,5.43
2022-10-03T05:33:08.912Z,5.47
2022-10-03T05:35:45.650Z,5.55
2022-10-03T05:38:31.560Z,5.75
2022-10-03T05:41:02.039Z,5.80
2022-10-03T05:43:36.353Z,5.40
2022-10-03T05:46:29.459Z,5.95
2022-10-03T05:49:04.994Z,5.55
2022-10-03T05:51:39.404Z,6.13
2022-10-03T05:56:43.099Z,5.15
2022-10-03T05:59:21.937Z,5.50
2022-10-03T06:01:52.238Z,6.20
2022-10-03T06:04:28.454Z,5.95
2022-10-03T06:07:19.460Z,5.78
2022-10-03T06:09:58.132Z,6.07
2022-10-03T06:12:25.492Z,6.28
2022-10-03T06:14:59.139Z,6.13
2022-10-03T06:17:42.991Z,6.95
2022-10-03T06:20:29.394Z,6.53
2022-10-03T06:23:15.178Z,6.20
2022-10-03T06:26:00.980Z,6.53
2022-10-03T06:28:46.475Z,6.60
2022-10-03T06:31:32.529Z,6.70
2022-10-03T06:33:59.809Z,6.47
2022-10-03T06:36:37.724Z,6.15
2022-10-03T06:39:23.666Z,6.00
2022-10-03T06:42:09.672Z,6.85
2022-10-03T06:44:41.105Z,7.03
2022-10-03T06:47:17.901Z,6.25
2022-10-03T06:49:51.012Z,5.57
2022-10-03T06:52:37.292Z,5.65
2022-10-03T06:55:10.954Z,5.78
2022-10-03T06:57:48.093Z,5.88
2022-10-03T07:00:22.783Z,5.85
2022-10-03T07:02:52.968Z,6.05
2022-10-03T07:05:23.017Z,5.32
2022-10-03T07:08:10.583Z,6.15
2022-10-03T07:10:44.233Z,6.25
2022-10-03T07:13:17.294Z,5.43
2022-10-03T07:18:57.139Z,5.60
2022-10-03T07:22:02.779Z,5.22
2022-10-03T07:24:48.934Z,6.03
2022-10-03T07:27:19.667Z,5.65
2022-10-03T07:29:46.951Z,6.18
2022-10-03T07:32:23.366Z,5.65
2022-10-03T07:35:13.540Z,6.20
2022-10-03T07:38:15.053Z,6.10
2022-10-03T07:41:00.743Z,6.20
2022-10-03T07:43:43.336Z,5.55
2022-10-03T07:46:28.922Z,5.80
2022-10-03T07:49:18.544Z,6.30
2022-10-03T07:52:04.801Z,6.22
2022-10-03T07:54:32.337Z,5.68
2022-10-03T07:57:06.029Z,6.35
2022-10-03T07:59:35.821Z,5.68
2022-10-03T08:02:21.541Z,6.07
2022-10-03T08:04:54.934Z,5.20
2022-10-03T08:07:40.732Z,5.35
2022-10-03T08:10:09.311Z,6.40
2022-10-03T08:12:38.463Z,5.65
2022-10-03T08:15:14.475Z,5.35
2022-10-03T08:17:53.651Z,5.63
2022-10-03T08:20:33.183Z,5.18
2022-10-03T08:23:06.263Z,5.53
2022-10-03T08:25:52.753Z,5.95
2022-10-03T08:28:20.028Z,5.43
2022-10-03T08:31:05.881Z,4.82
2022-10-03T08:33:42.585Z,5.30
2022-10-03T08:36:28.780Z,5.10
2022-10-03T08:38:59.766Z,4.63
2022-10-03T08:41:39.106Z,4.93
2022-10-03T08:44:06.658Z,5.28
2022-10-03T08:46:52.757Z,5.10
2022-10-03T08:49:26.045Z,4.57
2022-10-03T08:52:02.609Z,4.32
2022-10-03T08:54:45.112Z,4.88
2022-10-03T08:57:18.952Z,4.32
2022-10-03T08:59:46.248Z,5.00
2022-10-03T09:02:39.539Z,4.40
2022-10-03T09:05:22.027Z,3.67
2022-10-03T09:08:08.066Z,3.72
2022-10-03T09:10:37.849Z,4.13
2022-10-03T09:13:49.759Z,4.88
2022-10-03T09:16:58.573Z,4.50
2022-10-03T09:19:25.392Z,3.88
2022-10-03T09:22:24.087Z,6.05
2022-10-03T09:25:09.599Z,3.80
2022-10-03T09:27:54.380Z,3.90
2022-10-03T09:30:23.045Z,4.03
2022-10-03T09:33:08.494Z,3.80
2022-10-03T09:36:08.865Z,4.38
2022-10-03T09:39:02.838Z,3.33
2022-10-03T09:41:38.712Z,3.58
2022-10-03T09:44:53.607Z,3.75
2022-10-03T09:47:55.301Z,3.95
2022-10-03T09:50:47.123Z,3.95
2022-10-03T09:53:32.290Z,3.60
2022-10-03T09:58:52.239Z,4.05
2022-10-03T10:01:38.185Z,3.50
2022-10-03T10:04:54.395Z,3.63
2022-10-03T10:07:55.955Z,3.13
2022-10-03T10:10:51.255Z,3.95
2022-10-03T10:14:03.277Z,3.10
2022-10-03T10:16:51.965Z,3.15
2022-10-03T10:19:44.783Z,3.00
2022-10-03T10:22:30.419Z,2.92
2022-10-03T10:25:20.392Z,2.63
2022-10-03T10:28:16.891Z,2.70
2022-10-03T10:31:15.100Z,2.50
2022-10-03T10:33:44.900Z,2.90
2022-10-03T10:36:48.829Z,2.60
2022-10-03T10:39:40.557Z,2.47
2022-10-03T10:42:38.423Z,3.00
2022-10-03T10:45:32.910Z,2.17
2022-10-03T10:48:27.745Z,2.60
2022-10-03T10:51:13.106Z,2.30
2022-10-03T10:54:32.275Z,9.98
2022-10-03T10:57:29.648Z,2.40
2022-10-03T11:00:18.444Z,2.47
2022-10-03T11:03:22.958Z,2.47
2022-10-03T11:06:11.787Z,2.28
2022-10-03T11:09:19.818Z,2.45
2022-10-03T11:12:23.767Z,2.40
2022-10-03T11:15:26.686Z,2.08
2022-10-03T11:18:08.570Z,1.83
2022-10-03T11:21:17.343Z,2.25
2022-10-03T11:24:16.448Z,1.85
2022-10-03T11:27:07.150Z,1.67
2022-10-03T11:30:11.432Z,1.60
2022-10-03T11:33:16.025Z,1.70
2022-10-03T11:36:06.989Z,1.95
2022-10-03T11:38:44.053Z,2.00
2022-10-03T11:41:35.093Z,2.15
2022-10-03T11:44:26.097Z,2.03
2022-10-03T11:47:00.215Z,1.50
2022-10-03T11:49:57.752Z,1.65
2022-10-03T11:52:30.264Z,1.60
2022-10-03T11:55:18.256Z,1.77
2022-10-03T11:58:00.727Z,1.90
2022-10-03T12:00:33.262Z,1.98
2022-10-03T12:03:30.352Z,2.25
2022-10-03T12:06:27.343Z,2.15
2022-10-03T12:09:17.664Z,1.85
2022-10-03T12:11:57.906Z,2.30
2022-10-03T12:14:29.507Z,2.60
2022-10-03T12:17:11.880Z,2.25
2022-10-03T12:20:23.383Z,2.42
2022-10-03T12:22:56.185Z,2.88
2022-10-03T12:25:43.299Z,2.60
2022-10-03T12:28:35.229Z,2.30
2022-10-03T12:31:26.343Z,2.40
2022-10-03T12:34:19.770Z,2.50
2022-10-03T12:37:10.976Z,2.10
2022-10-03T12:40:07.760Z,1.90
2022-10-03T12:43:01.536Z,2.25
2022-10-03T12:46:13.480Z,2.05
2022-10-03T12:48:56.801Z,2.40
2022-10-03T12:51:36.117Z,2.55
2022-10-03T12:54:24.705Z,2.22
2022-10-03T12:57:30.687Z,2.33
2022-10-03T13:00:24.159Z,2.63
2022-10-03T13:03:17.324Z,3.20
2022-10-03T13:06:16.398Z,2.15
2022-10-03T13:08:51.295Z,2.70
2022-10-03T13:11:25.925Z,2.30
2022-10-03T13:16:39.990Z,2.58
2022-10-03T13:19:13.342Z,2.72
2022-10-03T13:22:07.171Z,2.33
2022-10-03T13:24:37.148Z,2.53
2022-10-03T13:27:10.684Z,2.92
2022-10-03T13:29:42.548Z,2.50
2022-10-03T13:32:18.750Z,2.97
2022-10-03T13:35:34.442Z,3.08
2022-10-03T13:38:46.886Z,2.80
2022-10-03T13:41:44.803Z,2.60
2022-10-03T13:44:17.927Z,3.50
2022-10-03T13:46:58.064Z,2.40
2022-10-03T13:49:34.299Z,2.80
2022-10-03T13:52:11.532Z,2.63
2022-10-03T13:54:39.384Z,2.30
2022-10-03T13:57:17.285Z,2.72
2022-10-03T14:00:08.629Z,2.72
2022-10-03T14:02:46.278Z,2.42
2022-10-03T14:05:31.302Z,2.33
2022-10-03T14:11:00.953Z,2.65
2022-10-03T14:13:52.943Z,2.60
2022-10-03T14:16:31.159Z,2.63
2022-10-03T14:19:18.797Z,2.30
2022-10-03T14:22:19.944Z,2.65
2022-10-03T14:25:11.311Z,2.30
2022-10-03T14:27:49.734Z,3.38
2022-10-03T14:31:04.434Z,2.60
2022-10-03T14:34:02.579Z,2.58
2022-10-03T14:36:52.403Z,2.15
2022-10-03T14:39:26.048Z,2.55
2022-10-03T14:41:55.458Z,2.70
2022-10-03T14:44:36.478Z,2.40
2022-10-03T14:47:09.223Z,2.28
2022-10-03T14:49:54.844Z,2.10
2022-10-03T14:52:48.331Z,2.78
2022-10-03T14:55:27.582Z,2.67
2022-10-03T14:58:11.489Z,2.40
2022-10-03T15:01:18.936Z,2.47
2022-10-03T15:04:01.814Z,1.98
2022-10-03T15:06:35.377Z,2.40
2022-10-03T15:09:25.521Z,2.45
2022-10-03T15:12:18.734Z,2.55
2022-10-03T15:14:54.264Z,2.70
2022-10-03T15:17:24.295Z,2.30
2022-10-03T15:19:56.092Z,3.05
2022-10-03T15:22:33.366Z,2.50
2022-10-03T15:25:17.894Z,2.15
2022-10-03T15:27:50.631Z,2.63
2022-10-03T15:30:32.012Z,2.50
2022-10-03T15:33:17.560Z,2.30
2022-10-03T15:35:48.831Z,1.80
2022-10-03T15:38:21.451Z,1.70
2022-10-03T15:41:07.160Z,1.90
2022-10-03T15:43:47.112Z,1.75
2022-10-03T15:46:33.851Z,2.08
2022-10-03T15:49:09.117Z,1.63
2022-10-03T15:51:38.933Z,2.00
2022-10-03T15:54:09.300Z,2.00
2022-10-03T15:56:42.440Z,1.90
2022-10-03T15:59:30.098Z,1.75
2022-10-03T16:01:58.796Z,1.80
2022-10-03T16:04:30.706Z,1.70
2022-10-03T16:07:09.481Z,1.60
2022-10-03T16:09:54.327Z,2.08
2022-10-03T16:12:48.580Z,2.05
2022-10-03T16:15:17.296Z,2.13
2022-10-03T16:18:02.106Z,2.08
2022-10-03T16:20:41.710Z,2.10
2022-10-03T16:23:25.851Z,1.85
2022-10-03T16:25:59.497Z,2.15
2022-10-03T16:28:39.488Z,1.85
2022-10-03T16:31:11.686Z,2.38
2022-10-03T16:33:42.929Z,2.55
2022-10-03T16:36:16.390Z,2.08
2022-10-03T16:39:04.594Z,2.30
2022-10-03T16:41:35.019Z,1.67
2022-10-03T16:44:40.497Z,2.10
2022-10-03T16:47:09.573Z,2.22
2022-10-03T16:50:08.364Z,1.88
2022-10-03T16:52:40.260Z,1.58
2022-10-03T16:55:17.302Z,2.08
2022-10-03T16:57:49.491Z,1.77
2022-10-03T17:00:30.783Z,1.90
2022-10-03T17:02:57.939Z,1.67
2022-10-03T17:05:25.222Z,1.50
2022-10-03T17:08:06.722Z,1.90
2022-10-03T17:10:52.345Z,1.58
2022-10-03T17:13:24.095Z,1.95
2022-10-03T17:16:00.123Z,2.25
2022-10-03T17:18:44.678Z,2.00
2022-10-03T17:21:25.867Z,1.67
2022-10-03T17:23:52.785Z,1.83
2022-10-03T17:26:32.847Z,2.63
2022-10-03T17:29:18.401Z,2.35
2022-10-03T17:32:00.530Z,2.08
2022-10-03T17:34:31.335Z,3.03
2022-10-03T17:37:30.160Z,2.35
2022-10-03T17:40:14.539Z,2.30
2022-10-03T17:42:47.223Z,2.03
2022-10-03T17:45:33.415Z,2.55
2022-10-03T17:48:05.062Z,2.72
2022-10-03T17:50:53.079Z,2.63
2022-10-03T17:53:26.548Z,2.17
2022-10-03T17:56:01.477Z,2.40
2022-10-03T17:58:31.540Z,2.20
2022-10-03T18:01:12.796Z,2.58
2022-10-03T18:03:39.715Z,2.72
2022-10-03T18:06:37.364Z,2.67
2022-10-03T18:09:15.862Z,2.53
2022-10-03T18:11:45.149Z,3.08
2022-10-03T18:14:41.557Z,2.60
2022-10-03T18:17:17.390Z,2.78
2022-10-03T18:20:02.391Z,3.20
2022-10-03T18:26:20.207Z,2.92
2022-10-03T18:28:47.434Z,2.63
2022-10-03T18:31:22.462Z,2.30
2022-10-03T18:33:55.567Z,2.90
2022-10-03T18:36:35.478Z,2.78
2022-10-03T18:39:21.764Z,3.03
2022-10-03T18:41:52.314Z,2.90
2022-10-03T18:44:22.444Z,2.88
2022-10-03T18:46:54.995Z,2.67
2022-10-03T18:49:35.108Z,2.45
2022-10-03T18:52:08.660Z,2.90
2022-10-03T18:54:40.448Z,2.50
2022-10-03T18:57:28.643Z,2.55
2022-10-03T19:00:18.401Z,2.85
2022-10-03T19:03:12.127Z,3.13
2022-10-03T19:05:53.305Z,2.70
2022-10-03T19:08:29.607Z,3.80
2022-10-03T19:11:15.464Z,2.97
2022-10-03T19:13:54.090Z,2.15
2022-10-03T19:16:57.138Z,2.80
2022-10-03T19:19:54.232Z,2.60
2022-10-03T19:22:39.319Z,2.65
2022-10-03T19:25:13.894Z,2.50
2022-10-03T19:27:50.177Z,2.15
2022-10-03T19:30:23.021Z,2.17
2022-10-03T19:32:58.808Z,2.30
2022-10-03T19:35:27.067Z,2.72
2022-10-03T19:38:03.156Z,2.78
2022-10-03T19:40:38.676Z,3.00
2022-10-03T19:43:32.907Z,2.95
2022-10-03T19:46:15.203Z,3.20
2022-10-03T19:48:49.036Z,2.63
2022-10-03T19:51:25.640Z,3.33
2022-10-03T19:53:55.207Z,3.10
2022-10-03T19:56:24.941Z,3.00
2022-10-03T19:58:59.882Z,3.30
2022-10-03T20:01:27.242Z,3.22
2022-10-03T20:03:57.896Z,2.90
2022-10-03T20:06:35.237Z,3.20
2022-10-03T20:09:05.925Z,3.58
2022-10-03T20:11:35.893Z,3.17
2022-10-03T20:14:03.791Z,2.72
2022-10-03T20:16:35.913Z,3.40
2022-10-03T20:19:10.602Z,3.50
2022-10-03T20:21:38.020Z,3.28
2022-10-03T20:24:21.816Z,3.40
2022-10-03T20:27:10.700Z,3.63
2022-10-03T20:29:45.966Z,4.00
2022-10-03T20:32:16.495Z,3.90
2022-10-03T20:34:54.999Z,4.45
2022-10-03T20:37:25.198Z,3.88
2022-10-03T20:39:55.711Z,4.00
2022-10-03T20:42:31.128Z,3.83
2022-10-03T20:45:03.824Z,4.13
2022-10-03T20:48:00.843Z,4.10
2022-10-03T20:50:43.685Z,4.10
2022-10-03T20:53:20.726Z,4.40
2022-10-03T20:55:57.132Z,4.85
2022-10-03T20:58:35.391Z,5.30
2022-10-03T21:01:10.347Z,4.82
2022-10-03T21:03:58.812Z,4.25
2022-10-03T21:06:31.164Z,5.30
2022-10-03T21:09:01.214Z,4.22
2022-10-03T21:11:30.889Z,4.32
2022-10-03T21:13:57.827Z,4.18
2022-10-03T21:16:31.004Z,5.05
2022-10-03T21:19:12.320Z,4.82
2022-10-03T21:21:44.932Z,4.35
2022-10-03T21:24:24.592Z,5.05
2022-10-03T21:27:00.223Z,4.90
2022-10-03T21:29:55.894Z,5.13
2022-10-03T21:32:49.271Z,5.30
2022-10-03T21:35:16.143Z,5.97
2022-10-03T21:38:01.431Z,6.13
2022-10-03T21:40:48.878Z,5.60
2022-10-03T21:43:21.667Z,6.05
2022-10-03T21:46:13.199Z,5.90
2022-10-03T21:48:59.096Z,6.90
2022-10-03T21:51:32.657Z,6.20
2022-10-03T21:54:24.610Z,5.93
2022-10-03T21:57:16.208Z,6.15
2022-10-03T22:00:12.711Z,6.55
2022-10-03T22:02:58.261Z,7.32
2022-10-03T22:05:40.476Z,6.75
2022-10-03T22:08:27.231Z,7.35
2022-10-03T22:11:33.996Z,7.20
2022-10-03T22:14:15.744Z,7.50
2022-10-03T22:17:08.534Z,9.85
2022-10-03T22:20:11.750Z,8.52
2022-10-03T22:22:42.110Z,7.40
2022-10-03T22:25:50.089Z,7.20
2022-10-03T22:28:17.028Z,8.07
2022-10-03T22:31:13.224Z,7.80
2022-10-03T22:33:55.478Z,8.38
2022-10-03T22:36:22.837Z,8.10
2022-10-03T22:38:50.663Z,7.97
2022-10-03T22:41:24.013Z,9.18
2022-10-03T22:43:53.535Z,8.48
2022-10-03T22:46:26.583Z,7.82
2022-10-03T22:49:21.037Z,8.90
2022-10-03T22:51:51.281Z,8.40
2022-10-03T22:54:19.277Z,8.07
2022-10-03T22:56:55.288Z,7.95
2022-10-03T22:59:28.770Z,8.38
2022-10-03T23:02:00.632Z,7.60
2022-10-03T23:04:37.176Z,7.80
2022-10-03T23:07:13.530Z,7.10
2022-10-03T23:09:55.534Z,7.63
2022-10-03T23:12:27.108Z,8.45
2022-10-03T23:14:56.044Z,8.38
2022-10-03T23:17:44.459Z,8.00
2022-10-03T23:20:51.017Z,8.38
2022-10-03T23:23:30.271Z,8.40
2022-10-03T23:26:09.834Z,7.90
2022-10-03T23:28:52.533Z,9.75
2022-10-03T23:31:53.657Z,8.90
2022-10-03T23:34:35.990Z,8.70
2022-10-03T23:37:14.874Z,8.50
2022-10-03T23:39:43.470Z,9.68
2022-10-03T23:42:15.803Z,9.60
2022-10-03T23:44:53.429Z,9.57
2022-10-03T23:47:26.871Z,9.18
2022-10-03T23:49:55.244Z,9.73
2022-10-03T23:52:32.853Z,10.10
2022-10-03T23:55:03.414Z,9.52
2022-10-03T23:57:38.712Z,9.23
